Time;durP1;ratioP1;P1;durP2;ratioP2;P2;SDS_P1;SDS_P2;PMS_P1;PMS_P2;Temp;Humidity;BMP_temperature;BMP_pressure;BME280_temperature;BME280_humidity;BME280_pressure;Samples;Min_cycle;Max_cycle;Signal;HPM_P1;HPM_P2
2021/09/10 00:00:50;;;;;;;39.83;32.55;;;;;;;10.46;100.00;99289.50;2079915;28;20239;-75
2021/09/10 00:01:50;;;;;;;41.28;32.03;;;;;;;10.43;100.00;99278.63;2088297;28;20309;-74
2021/09/10 00:02:52;;;;;;;39.80;31.60;;;;;;;10.41;100.00;99283.44;2088956;28;20218;-75
2021/09/10 00:03:53;;;;;;;45.30;32.13;;;;;;;10.39;100.00;99282.94;2087680;28;20242;-75
2021/09/10 00:04:56;;;;;;;40.40;33.27;;;;;;;10.35;100.00;99288.06;2088011;28;20231;-75
2021/09/10 00:05:56;;;;;;;43.00;34.78;;;;;;;10.37;100.00;99285.09;2088994;28;21281;-75
2021/09/10 00:06:58;;;;;;;43.00;33.03;;;;;;;10.39;100.00;99285.59;2088862;28;20662;-75
2021/09/10 00:07:59;;;;;;;43.97;33.80;;;;;;;10.37;100.00;99287.78;2088935;28;20557;-75
2021/09/10 00:09:00;;;;;;;42.85;32.05;;;;;;;10.32;100.00;99285.16;2088800;28;20685;-74
2021/09/10 00:10:05;;;;;;;40.50;33.03;;;;;;;10.29;100.00;99283.09;2088950;28;20631;-74
2021/09/10 00:11:05;;;;;;;39.78;31.80;;;;;;;10.28;100.00;99286.84;2088098;28;20325;-75
2021/09/10 00:12:07;;;;;;;38.40;30.57;;;;;;;10.24;100.00;99281.28;2088115;28;20274;-74
2021/09/10 00:13:08;;;;;;;37.60;30.95;;;;;;;10.22;100.00;99278.09;2088430;28;20233;-75
2021/09/10 00:14:10;;;;;;;39.83;31.57;;;;;;;10.18;100.00;99282.41;2088834;28;20306;-75
2021/09/10 00:15:11;;;;;;;42.05;30.75;;;;;;;10.17;100.00;99281.63;2088693;28;20230;-75
2021/09/10 00:16:13;;;;;;;36.17;30.83;;;;;;;10.13;100.00;99271.81;2087966;28;20234;-75
2021/09/10 00:17:13;;;;;;;37.85;32.70;;;;;;;10.13;100.00;99275.25;2087979;28;20242;-74
2021/09/10 00:18:15;;;;;;;40.23;31.53;;;;;;;10.09;100.00;99279.59;2088250;28;20229;-75
2021/09/10 00:19:15;;;;;;;36.75;32.13;;;;;;;10.08;100.00;99278.00;2087995;28;20215;-75
2021/09/10 00:20:18;;;;;;;46.37;35.43;;;;;;;10.09;100.00;99276.94;2088827;28;20223;-75
2021/09/10 00:21:19;;;;;;;44.53;35.78;;;;;;;10.10;100.00;99273.19;2088077;28;20289;-75
2021/09/10 00:22:21;;;;;;;45.60;35.60;;;;;;;10.11;100.00;99277.44;2088157;28;20211;-75
2021/09/10 00:23:21;;;;;;;45.08;32.33;;;;;;;10.10;100.00;99277.72;2088438;28;20229;-75
2021/09/10 00:24:23;;;;;;;40.67;32.73;;;;;;;10.10;100.00;99280.38;2088833;28;20237;-76
2021/09/10 00:25:24;;;;;;;48.33;33.15;;;;;;;10.07;100.00;99273.72;2087912;28;20218;-75
2021/09/10 00:26:25;;;;;;;45.50;32.97;;;;;;;10.02;100.00;99273.81;2079680;28;20234;-75
2021/09/10 00:27:26;;;;;;;38.00;31.80;;;;;;;9.99;100.00;99279.72;2087861;28;20223;-74
2021/09/10 00:28:28;;;;;;;42.37;32.13;;;;;;;9.97;100.00;99284.53;2079903;28;20231;-75
2021/09/10 00:29:28;;;;;;;46.95;33.72;;;;;;;9.95;100.00;99289.38;2088086;28;20223;-75
2021/09/10 00:30:30;;;;;;;48.73;36.40;;;;;;;9.91;100.00;99280.38;2087830;28;20257;-75
2021/09/10 00:31:31;;;;;;;47.75;35.90;;;;;;;9.94;100.00;99287.78;2079672;28;20298;-75
2021/09/10 00:32:33;;;;;;;49.70;37.23;;;;;;;9.94;100.00;99282.44;2087978;28;20221;-74
2021/09/10 00:33:34;;;;;;;58.33;39.72;;;;;;;9.95;100.00;99283.25;2088514;28;20234;-74
2021/09/10 00:34:35;;;;;;;51.22;39.35;;;;;;;9.96;100.00;99280.28;2087952;28;20222;-75
2021/09/10 00:35:37;;;;;;;51.20;37.08;;;;;;;9.96;100.00;99282.16;2088048;28;20321;-74
2021/09/10 00:36:39;;;;;;;47.80;36.35;;;;;;;9.95;100.00;99280.56;2088375;28;20615;-75
2021/09/10 00:37:40;;;;;;;47.00;36.72;;;;;;;9.94;100.00;99282.44;2088729;28;20238;-75
2021/09/10 00:38:41;;;;;;;51.17;36.77;;;;;;;9.98;100.00;99283.44;2088656;28;20215;-75
2021/09/10 00:39:42;;;;;;;48.38;36.58;;;;;;;9.96;100.00;99290.16;2087854;28;20712;-75
2021/09/10 00:40:45;;;;;;;55.40;38.20;;;;;;;9.95;100.00;99293.91;2087992;28;20630;-75
2021/09/10 00:41:45;;;;;;;46.47;36.03;;;;;;;9.93;100.00;99285.41;2087998;28;20230;-75
2021/09/10 00:42:47;;;;;;;48.13;34.27;;;;;;;9.89;100.00;99290.50;2088765;28;20226;-74
2021/09/10 00:43:47;;;;;;;45.88;34.80;;;;;;;9.86;100.00;99285.75;2088669;28;20705;-74
2021/09/10 00:44:49;;;;;;;42.53;35.17;;;;;;;9.83;100.00;99286.31;2088809;28;20549;-74
2021/09/10 00:45:50;;;;;;;41.53;32.55;;;;;;;9.78;100.00;99287.16;2088660;28;20299;-74
2021/09/10 00:46:51;;;;;;;42.60;34.63;;;;;;;9.75;100.00;99284.28;2088627;28;20226;-74
2021/09/10 00:47:52;;;;;;;40.38;32.47;;;;;;;9.74;100.00;99282.72;2088309;28;20657;-75
2021/09/10 00:48:57;;;;;;;42.83;34.10;;;;;;;9.72;100.00;99280.31;2088551;28;20645;-75
2021/09/10 00:49:58;;;;;;;50.85;35.33;;;;;;;9.68;100.00;99278.50;2088588;28;20689;-75
2021/09/10 00:51:01;;;;;;;43.87;34.53;;;;;;;9.65;100.00;99279.88;2088551;28;20645;-75
2021/09/10 00:52:02;;;;;;;46.10;33.72;;;;;;;9.64;100.00;99280.94;2087794;28;20250;-75
2021/09/10 00:53:04;;;;;;;48.45;34.33;;;;;;;9.69;100.00;99280.09;2087977;28;20798;-75
2021/09/10 00:54:04;;;;;;;48.35;36.15;;;;;;;9.74;100.00;99278.16;2088719;28;20218;-74
2021/09/10 00:55:07;;;;;;;50.53;37.83;;;;;;;9.77;100.00;99282.13;2088506;28;20697;-75
2021/09/10 00:56:08;;;;;;;47.17;35.47;;;;;;;9.76;100.00;99281.34;2087479;28;20222;-75
2021/09/10 00:57:10;;;;;;;47.70;35.73;;;;;;;9.76;100.00;99283.22;2079708;28;20262;-75
2021/09/10 00:58:13;;;;;;;43.65;34.88;;;;;;;9.72;100.00;99284.84;2079593;28;20227;-75
2021/09/10 01:00:57;;;;;;;43.95;34.22;;;;;;;9.58;100.00;99284.75;2073436;28;20253;-74
2021/09/10 01:01:58;;;;;;;40.95;32.63;;;;;;;9.53;100.00;99282.91;2087865;28;20240;-75
2021/09/10 01:03:01;;;;;;;42.15;31.38;;;;;;;9.50;100.00;99285.38;2087897;28;20240;-75
2021/09/10 01:04:02;;;;;;;38.70;31.88;;;;;;;9.46;100.00;99282.47;2087781;28;20234;-74
2021/09/10 01:05:04;;;;;;;40.00;33.25;;;;;;;9.42;100.00;99283.31;2088685;28;20669;-75
2021/09/10 01:06:06;;;;;;;40.97;32.78;;;;;;;9.38;100.00;99280.41;2089534;28;20349;-75
2021/09/10 01:07:08;;;;;;;42.83;33.63;;;;;;;9.39;100.00;99281.22;2089166;28;20629;-75
2021/09/10 01:08:10;;;;;;;40.70;32.90;;;;;;;9.37;100.00;99281.50;2090218;28;20222;-75
2021/09/10 01:09:14;;;;;;;43.72;35.05;;;;;;;9.37;100.00;99289.47;2089726;28;20238;-75
2021/09/10 01:10:15;;;;;;;38.53;32.85;;;;;;;9.33;100.00;99286.59;2089599;28;20289;-75
2021/09/10 01:11:16;;;;;;;40.33;32.27;;;;;;;9.28;100.00;99280.53;2089447;28;20226;-75
2021/09/10 01:12:18;;;;;;;43.25;33.97;;;;;;;9.26;100.00;99282.69;2089768;28;20257;-76
2021/09/10 01:13:20;;;;;;;38.95;32.63;;;;;;;9.24;100.00;99287.50;2090240;28;20222;-75
2021/09/10 01:14:20;;;;;;;44.40;33.83;;;;;;;9.21;100.00;99282.72;2090269;28;20238;-74
2021/09/10 01:15:22;;;;;;;44.40;33.70;;;;;;;9.21;100.00;99280.88;2089743;28;20231;-75
2021/09/10 01:16:23;;;;;;;40.72;32.97;;;;;;;9.18;100.00;99289.41;2089118;28;20268;-76
2021/09/10 01:17:25;;;;;;;41.80;33.88;;;;;;;9.16;100.00;99288.09;2089328;28;20227;-75
2021/09/10 01:18:26;;;;;;;39.10;33.60;;;;;;;9.14;100.00;99287.59;2089626;28;20238;-75
2021/09/10 01:19:29;;;;;;;41.40;34.03;;;;;;;9.12;100.00;99287.06;2090185;28;20713;-75
2021/09/10 01:20:30;;;;;;;44.83;34.50;;;;;;;9.11;100.00;99280.94;2089408;28;20236;-75
2021/09/10 01:21:33;;;;;;;43.03;35.47;;;;;;;9.09;100.00;99287.63;2089346;28;20234;-75
2021/09/10 01:22:36;;;;;;;41.28;33.53;;;;;;;9.09;100.00;99298.28;2089529;28;20285;-75
2021/09/10 01:23:36;;;;;;;45.53;34.67;;;;;;;9.09;100.00;99295.63;2089803;28;20247;-75
2021/09/10 01:24:42;;;;;;;43.20;34.77;;;;;;;9.10;100.00;99291.88;2090141;28;20222;-75
2021/09/10 01:25:43;;;;;;;45.08;34.47;;;;;;;9.09;100.00;99288.44;2089454;28;20302;-75
2021/09/10 01:26:46;;;;;;;46.40;35.42;;;;;;;9.10;100.00;99294.53;2081358;28;20227;-75
2021/09/10 01:27:48;;;;;;;48.13;36.20;;;;;;;9.07;100.00;99294.03;2081263;28;20605;-74
2021/09/10 01:28:50;;;;;;;44.42;33.85;;;;;;;9.06;100.00;99295.09;2089251;28;20231;-74
2021/09/10 01:29:50;;;;;;;41.92;33.88;;;;;;;9.03;100.00;99295.69;2089132;28;20305;-75
2021/09/10 01:30:52;;;;;;;45.17;35.60;;;;;;;9.01;100.00;99294.34;2089331;28;20222;-75
2021/09/10 01:31:53;;;;;;;41.65;35.60;;;;;;;8.99;100.00;99294.63;2089652;28;20238;-75
2021/09/10 01:32:58;;;;;;;41.43;35.67;;;;;;;8.97;100.00;99296.78;2089227;28;20317;-75
2021/09/10 01:33:58;;;;;;;46.55;35.78;;;;;;;9.00;100.00;99300.75;2089353;28;20247;-75
2021/09/10 01:35:00;;;;;;;44.17;34.63;;;;;;;9.02;100.00;99299.38;2090077;28;20234;-75
2021/09/10 01:36:00;;;;;;;50.28;36.47;;;;;;;9.03;100.00;99301.00;2090175;28;20214;-75
2021/09/10 01:37:02;;;;;;;47.93;35.10;;;;;;;9.04;100.00;99297.25;2090168;28;20218;-75
2021/09/10 01:38:04;;;;;;;42.80;33.83;;;;;;;9.01;100.00;99297.00;2089240;28;20246;-74
2021/09/10 01:39:05;;;;;;;45.33;33.67;;;;;;;8.97;100.00;99296.78;2089307;28;20253;-75
2021/09/10 01:40:09;;;;;;;48.13;35.55;;;;;;;8.93;100.00;99301.06;2090134;28;20633;-75
2021/09/10 01:41:13;;;;;;;45.60;34.00;;;;;;;8.92;100.00;99304.00;2089759;28;20668;-74
2021/09/10 01:42:14;;;;;;;40.67;33.03;;;;;;;8.89;100.00;99299.25;2090061;28;20234;-74
2021/09/10 01:43:16;;;;;;;50.70;36.60;;;;;;;8.89;100.00;99300.03;2089499;28;20222;-74
2021/09/10 01:44:16;;;;;;;46.90;34.58;;;;;;;8.91;100.00;99302.41;2089294;28;20226;-75
2021/09/10 01:45:18;;;;;;;42.00;35.07;;;;;;;8.91;100.00;99300.56;2090046;28;20731;-74
2021/09/10 01:46:19;;;;;;;47.40;36.28;;;;;;;8.94;100.00;99307.19;2089133;28;20223;-75
2021/09/10 01:47:20;;;;;;;47.43;34.77;;;;;;;8.93;100.00;99305.59;2089226;28;20226;-75
2021/09/10 01:48:21;;;;;;;44.20;34.60;;;;;;;8.90;100.00;99306.94;2089978;28;20638;-74
2021/09/10 01:49:23;;;;;;;44.57;35.27;;;;;;;8.90;100.00;99306.16;2089571;28;20230;-75
2021/09/10 01:50:25;;;;;;;42.78;34.05;;;;;;;8.88;100.00;99297.66;2089300;28;20250;-75
2021/09/10 01:51:30;;;;;;;40.97;34.90;;;;;;;8.84;100.00;99305.41;2089088;28;20240;-75
2021/09/10 01:52:31;;;;;;;41.10;34.72;;;;;;;8.82;100.00;99302.22;2089865;28;20331;-75
2021/09/10 01:53:34;;;;;;;44.07;34.90;;;;;;;8.81;100.00;99303.31;2089052;28;20222;-75
2021/09/10 01:54:35;;;;;;;44.20;35.63;;;;;;;8.79;100.00;99292.16;2089363;28;20217;-75
2021/09/10 01:55:39;;;;;;;45.17;34.33;;;;;;;8.78;100.00;99304.66;2089243;28;20792;-75
2021/09/10 01:56:41;;;;;;;43.33;34.58;;;;;;;8.78;100.00;99303.88;2089639;28;20226;-75
2021/09/10 01:57:45;;;;;;;47.63;35.75;;;;;;;8.76;100.00;99295.34;2089115;28;20230;-75
2021/09/10 01:58:45;;;;;;;42.30;34.78;;;;;;;8.77;100.00;99300.41;2081121;28;20246;-75
2021/09/10 01:59:47;;;;;;;40.63;34.73;;;;;;;8.76;100.00;99306.78;2089199;28;20759;-75
2021/09/10 02:00:48;;;;;;;42.53;34.38;;;;;;;8.73;100.00;99301.22;2089069;28;20222;-74
2021/09/10 02:01:50;;;;;;;43.20;34.60;;;;;;;8.75;100.00;99301.75;2080851;28;20227;-75
2021/09/10 02:02:51;;;;;;;45.13;34.92;;;;;;;8.80;100.00;99296.41;2089184;28;20253;-74
2021/09/10 02:03:53;;;;;;;43.20;35.53;;;;;;;8.83;100.00;99301.16;2088763;28;20222;-76
2021/09/10 02:04:54;;;;;;;46.92;35.47;;;;;;;8.83;100.00;99295.81;2088858;28;20317;-75
2021/09/10 02:05:55;;;;;;;48.27;36.10;;;;;;;8.84;100.00;99302.72;2089010;28;20233;-75
2021/09/10 02:06:56;;;;;;;43.42;34.65;;;;;;;8.84;100.00;99296.63;2081063;28;20746;-75
2021/09/10 02:07:57;;;;;;;44.83;34.63;;;;;;;8.82;100.00;99304.88;2089096;28;20584;-75
2021/09/10 02:08:58;;;;;;;44.15;34.20;;;;;;;8.77;100.00;99292.44;2089060;28;20297;-74
2021/09/10 02:10:00;;;;;;;37.90;31.77;;;;;;;8.75;100.00;99288.44;2089134;28;20223;-75
2021/09/10 02:11:03;;;;;;;41.47;32.58;;;;;;;8.71;100.00;99296.19;2088977;28;20215;-75
2021/09/10 02:12:06;;;;;;;38.70;32.08;;;;;;;8.65;100.00;99286.66;2089255;28;20256;-75
2021/09/10 02:13:06;;;;;;;40.00;31.95;;;;;;;8.66;100.00;99287.44;2089150;28;20228;-75
2021/09/10 02:14:08;;;;;;;40.80;32.20;;;;;;;8.63;100.00;99288.00;2088636;28;20277;-75
2021/09/10 02:15:10;;;;;;;38.75;32.13;;;;;;;8.59;100.00;99285.09;2089790;28;20271;-75
2021/09/10 02:16:12;;;;;;;40.83;32.45;;;;;;;8.59;100.00;99292.28;2089650;28;20223;-75
2021/09/10 02:17:13;;;;;;;43.20;32.50;;;;;;;8.58;100.00;99290.69;2088974;28;20245;-75
2021/09/10 02:18:14;;;;;;;36.40;31.33;;;;;;;8.53;100.00;99291.53;2089157;28;20226;-74
2021/09/10 02:19:17;;;;;;;39.78;32.85;;;;;;;8.53;100.00;99301.38;2089793;28;20298;-75
2021/09/10 02:20:20;;;;;;;37.88;33.05;;;;;;;8.50;100.00;99298.19;2089776;28;20233;-75
2021/09/10 02:21:21;;;;;;;39.25;32.72;;;;;;;8.45;100.00;99290.25;2089287;28;20234;-76
2021/09/10 02:22:23;;;;;;;39.33;32.80;;;;;;;8.45;100.00;99294.78;2089936;28;20234;-75
2021/09/10 02:23:23;;;;;;;37.85;33.38;;;;;;;8.43;100.00;99291.63;2088879;28;20238;-75
2021/09/10 02:24:25;;;;;;;36.97;31.90;;;;;;;8.42;100.00;99290.00;2080682;28;20220;-75
2021/09/10 02:25:26;;;;;;;38.97;32.42;;;;;;;8.37;100.00;99290.84;2080813;28;20314;-74
2021/09/10 02:26:29;;;;;;;41.27;30.97;;;;;;;8.37;100.00;99293.50;2088882;28;20285;-75
2021/09/10 02:27:30;;;;;;;36.88;31.70;;;;;;;8.36;100.00;99289.25;2088425;28;20258;-75
2021/09/10 02:28:31;;;;;;;40.40;32.07;;;;;;;8.35;100.00;99290.31;2080648;28;20227;-75
2021/09/10 02:29:32;;;;;;;36.30;30.35;;;;;;;8.34;100.00;99299.34;2088742;28;20422;-74
2021/09/10 02:30:34;;;;;;;36.87;30.93;;;;;;;8.32;100.00;99285.50;2089807;28;20219;-74
2021/09/10 02:31:36;;;;;;;39.45;31.30;;;;;;;8.30;100.00;99281.53;2088883;28;20230;-74
2021/09/10 02:32:36;;;;;;;37.78;30.95;;;;;;;8.29;100.00;99286.06;2088496;28;20278;-75
2021/09/10 02:33:38;;;;;;;43.27;32.83;;;;;;;8.28;100.00;99291.66;2088972;28;20235;-75
2021/09/10 02:34:39;;;;;;;40.15;31.75;;;;;;;8.27;100.00;99292.75;2088742;28;20227;-75
2021/09/10 02:35:40;;;;;;;40.47;32.33;;;;;;;8.27;100.00;99292.75;2088896;28;20309;-75
2021/09/10 02:36:41;;;;;;;38.38;31.92;;;;;;;8.27;100.00;99293.53;2089706;28;20310;-75
2021/09/10 02:37:42;;;;;;;35.63;31.20;;;;;;;8.26;100.00;99296.47;2089866;28;20285;-75
2021/09/10 02:38:43;;;;;;;38.20;31.75;;;;;;;8.25;100.00;99285.00;2088659;28;20696;-75
2021/09/10 02:39:45;;;;;;;40.60;31.87;;;;;;;8.23;100.00;99287.94;2088914;28;20567;-75
2021/09/10 02:40:45;;;;;;;41.58;33.10;;;;;;;8.26;100.00;99297.25;2089617;28;20214;-75
2021/09/10 02:41:48;;;;;;;39.50;32.77;;;;;;;8.25;100.00;99290.34;2089041;28;20772;-75
2021/09/10 02:42:49;;;;;;;39.92;33.75;;;;;;;8.22;100.00;99283.72;2088677;28;20269;-74
2021/09/10 02:43:51;;;;;;;39.20;32.65;;;;;;;8.25;100.00;99289.53;2080342;28;20225;-74
2021/09/10 02:44:51;;;;;;;41.85;33.03;;;;;;;8.24;100.00;99288.75;2088377;28;20302;-75
2021/09/10 02:45:53;;;;;;;40.47;31.67;;;;;;;8.23;100.00;99284.50;2089491;28;20242;-76
2021/09/10 02:46:53;;;;;;;39.78;31.70;;;;;;;8.21;100.00;99289.31;2089639;28;20262;-75
2021/09/10 02:47:55;;;;;;;38.53;31.83;;;;;;;8.22;100.00;99293.53;2089683;28;20237;-75
2021/09/10 02:48:56;;;;;;;40.45;33.38;;;;;;;8.17;100.00;99290.94;2089558;28;20230;-75
2021/09/10 02:49:57;;;;;;;37.47;32.13;;;;;;;8.17;100.00;99293.59;2089150;28;20238;-75
2021/09/10 02:51:00;;;;;;;37.42;31.33;;;;;;;8.13;100.00;99290.66;2089532;28;20348;-75
2021/09/10 02:52:03;;;;;;;37.03;31.75;;;;;;;8.11;100.00;99287.50;2089528;28;20230;-74
2021/09/10 02:53:04;;;;;;;39.90;31.60;;;;;;;8.11;100.00;99289.38;2089497;28;20222;-74
2021/09/10 02:54:06;;;;;;;36.15;31.83;;;;;;;8.09;100.00;99286.19;2089674;28;20226;-75
2021/09/10 02:55:09;;;;;;;38.33;32.20;;;;;;;8.07;100.00;99285.66;2089153;28;20579;-75
2021/09/10 02:56:11;;;;;;;36.55;31.45;;;;;;;8.06;100.00;99284.06;2089395;28;20234;-75
2021/09/10 02:57:14;;;;;;;34.83;30.88;;;;;;;8.05;100.00;99285.13;2089467;28;20233;-75
2021/09/10 02:58:16;;;;;;;35.55;30.65;;;;;;;8.01;100.00;99284.91;2089157;28;20313;-75
2021/09/10 02:59:18;;;;;;;36.35;30.42;;;;;;;8.00;100.00;99280.66;2088798;28;20277;-74
2021/09/10 03:00:20;;;;;;;37.40;32.15;;;;;;;7.98;100.00;99285.44;2088793;28;20297;-75
2021/09/10 03:01:21;;;;;;;40.78;31.60;;;;;;;7.97;100.00;99281.19;2089404;28;20223;-75
2021/09/10 03:02:23;;;;;;;36.50;30.50;;;;;;;7.96;100.00;99281.47;2089008;28;20623;-75
2021/09/10 03:03:25;;;;;;;34.90;30.67;;;;;;;7.96;100.00;99281.47;2089435;28;20713;-74
2021/09/10 03:04:27;;;;;;;36.58;31.60;;;;;;;7.91;100.00;99285.75;2088641;28;20226;-75
2021/09/10 03:05:29;;;;;;;45.28;31.45;;;;;;;7.92;100.00;99286.53;2088445;28;20712;-75
2021/09/10 03:06:30;;;;;;;36.38;31.63;;;;;;;7.93;100.00;99288.91;2089241;28;20233;-74
2021/09/10 03:07:31;;;;;;;38.53;31.75;;;;;;;7.92;100.00;99289.97;2089474;28;20751;-75
2021/09/10 03:08:33;;;;;;;36.57;32.10;;;;;;;7.91;100.00;99290.25;2089469;28;20578;-74
2021/09/10 03:09:33;;;;;;;34.80;31.00;;;;;;;7.91;100.00;99293.72;2089398;28;20338;-74
2021/09/10 03:10:35;;;;;;;37.40;31.03;;;;;;;7.90;100.00;99294.75;2089452;28;20230;-74
2021/09/10 03:11:36;;;;;;;35.17;29.95;;;;;;;7.91;100.00;99296.38;2089378;28;20250;-74
2021/09/10 03:12:39;;;;;;;35.88;30.60;;;;;;;7.92;100.00;99291.84;2087895;28;20226;-75
2021/09/10 03:13:40;;;;;;;33.97;30.13;;;;;;;7.91;100.00;99291.06;2088559;28;20237;-75
2021/09/10 03:14:44;;;;;;;34.23;29.30;;;;;;;7.91;100.00;99290.25;2089443;28;20258;-75
2021/09/10 03:15:45;;;;;;;34.70;30.85;;;;;;;7.88;100.00;99294.25;2089330;28;20246;-75
2021/09/10 03:16:47;;;;;;;32.57;28.90;;;;;;;7.86;100.00;99299.03;2089361;28;20226;-75
2021/09/10 03:17:48;;;;;;;35.33;30.45;;;;;;;7.85;100.00;99300.09;2089367;28;20729;-74
2021/09/10 03:18:49;;;;;;;32.47;29.03;;;;;;;7.81;100.00;99293.72;2089335;28;20577;-74
2021/09/10 03:19:50;;;;;;;33.58;29.67;;;;;;;7.82;100.00;99295.34;2089292;28;20223;-74
2021/09/10 03:20:53;;;;;;;33.33;29.83;;;;;;;7.82;100.00;99292.69;2088506;28;20229;-75
2021/09/10 03:21:55;;;;;;;35.22;30.58;;;;;;;7.78;100.00;99296.16;2088209;28;20583;-75
2021/09/10 03:22:57;;;;;;;33.27;29.67;;;;;;;7.78;100.00;99296.94;2088484;28;20222;-74
2021/09/10 03:23:58;;;;;;;32.22;28.95;;;;;;;7.77;100.00;99295.34;2088504;28;20218;-75
2021/09/10 03:24:59;;;;;;;32.10;28.50;;;;;;;7.76;100.00;99299.06;2089275;28;20738;-75
2021/09/10 03:26:00;;;;;;;34.03;30.38;;;;;;;7.74;100.00;99289.81;2088440;28;20276;-74
2021/09/10 03:27:02;;;;;;;31.60;28.30;;;;;;;7.74;100.00;99295.91;2088641;28;20215;-74
2021/09/10 03:28:04;;;;;;;38.05;29.55;;;;;;;7.71;100.00;99300.94;2088036;28;20223;-75
2021/09/10 03:29:08;;;;;;;35.95;31.48;;;;;;;7.73;100.00;99289.00;2088424;28;20280;-74
2021/09/10 03:30:10;;;;;;;36.80;30.83;;;;;;;7.72;100.00;99295.34;2087912;28;20230;-75
2021/09/10 03:31:12;;;;;;;34.88;29.75;;;;;;;7.72;100.00;99297.22;2088515;28;20226;-74
2021/09/10 03:32:13;;;;;;;36.47;30.58;;;;;;;7.74;100.00;99295.91;2089179;28;20306;-75
2021/09/10 03:33:14;;;;;;;33.63;29.90;;;;;;;7.72;100.00;99303.31;2089116;28;20229;-74
2021/09/10 03:34:15;;;;;;;33.92;28.73;;;;;;;7.71;100.00;99296.44;2089125;28;20246;-75
2021/09/10 03:35:16;;;;;;;37.10;29.77;;;;;;;7.69;100.00;99290.59;2087927;28;20685;-75
2021/09/10 03:36:18;;;;;;;37.42;31.23;;;;;;;7.69;100.00;99292.47;2080519;28;20306;-75
2021/09/10 03:37:19;;;;;;;33.60;29.85;;;;;;;7.65;100.00;99298.31;2088327;28;20249;-75
2021/09/10 03:38:20;;;;;;;34.03;29.23;;;;;;;7.65;100.00;99297.53;2088390;28;20227;-75
2021/09/10 03:39:21;;;;;;;35.03;29.60;;;;;;;7.65;100.00;99297.53;2080098;28;20223;-75
2021/09/10 03:40:24;;;;;;;33.10;29.00;;;;;;;7.62;100.00;99298.06;2088121;28;20305;-75
2021/09/10 03:41:25;;;;;;;33.30;29.38;;;;;;;7.61;100.00;99301.78;2089158;28;20689;-75
2021/09/10 03:42:27;;;;;;;33.90;29.13;;;;;;;7.59;100.00;99293.28;2089203;28;20226;-75
2021/09/10 03:43:29;;;;;;;36.88;30.05;;;;;;;7.60;100.00;99294.88;2089152;28;20221;-75
2021/09/10 03:44:30;;;;;;;37.10;29.90;;;;;;;7.59;100.00;99295.94;2089217;28;20583;-75
2021/09/10 03:45:32;;;;;;;33.42;29.33;;;;;;;7.58;100.00;99289.84;2089076;28;20226;-74
2021/09/10 03:46:33;;;;;;;35.08;29.40;;;;;;;7.56;100.00;99293.84;2088295;28;20253;-75
2021/09/10 03:47:34;;;;;;;34.63;29.27;;;;;;;7.56;100.00;99293.84;2080005;28;20717;-75
2021/09/10 03:48:36;;;;;;;34.43;27.53;;;;;;;7.54;100.00;99294.09;2079901;28;20605;-74
2021/09/10 03:49:37;;;;;;;31.48;27.85;;;;;;;7.53;100.00;99297.00;2088031;28;20223;-75
2021/09/10 03:50:39;;;;;;;33.80;28.77;;;;;;;7.52;100.00;99293.56;2089057;28;20227;-74
2021/09/10 03:51:39;;;;;;;36.05;29.15;;;;;;;7.50;100.00;99290.41;2089153;28;20323;-74
2021/09/10 03:52:41;;;;;;;32.80;28.37;;;;;;;7.49;100.00;99294.13;2089119;28;20749;-75
2021/09/10 03:53:42;;;;;;;31.73;28.30;;;;;;;7.48;100.00;99289.09;2089012;28;20233;-75
2021/09/10 03:54:43;;;;;;;29.57;26.67;;;;;;;7.47;100.00;99290.13;2088448;28;20726;-74
2021/09/10 03:55:44;;;;;;;32.78;27.75;;;;;;;7.47;100.00;99300.75;2088332;28;20262;-75
2021/09/10 03:56:45;;;;;;;30.80;27.13;;;;;;;7.41;100.00;99299.97;2088929;28;20226;-75
2021/09/10 03:57:46;;;;;;;31.58;28.33;;;;;;;7.43;100.00;99302.34;2088905;28;20225;-74
2021/09/10 03:58:49;;;;;;;32.27;28.97;;;;;;;7.40;100.00;99295.72;2088955;28;20215;-75
2021/09/10 03:59:51;;;;;;;34.30;28.77;;;;;;;7.40;100.00;99297.59;2089027;28;20549;-75
2021/09/10 04:00:53;;;;;;;36.83;27.65;;;;;;;7.37;100.00;99297.03;2087571;28;20599;-75
2021/09/10 04:01:56;;;;;;;35.38;29.67;;;;;;;7.35;100.00;99299.19;2080338;28;20768;-75
2021/09/10 04:03:03;;;;;;;31.25;27.67;;;;;;;7.36;100.00;99303.41;2088093;28;20237;-75
2021/09/10 04:04:04;;;;;;;35.50;29.90;;;;;;;7.36;100.00;99299.97;2088295;28;20673;-74
2021/09/10 04:05:07;;;;;;;34.15;29.52;;;;;;;7.35;100.00;99299.19;2079704;28;20219;-74
2021/09/10 04:06:08;;;;;;;34.08;29.50;;;;;;;7.35;100.00;99301.84;2079460;28;20238;-74
2021/09/10 04:07:10;;;;;;;35.00;29.25;;;;;;;7.34;100.00;99296.78;2080183;28;20227;-75
2021/09/10 04:08:12;;;;;;;32.88;28.77;;;;;;;7.34;100.00;99302.09;2088212;28;20223;-75
2021/09/10 04:09:14;;;;;;;32.03;28.73;;;;;;;7.32;100.00;99299.72;2088640;28;20218;-75
2021/09/10 04:10:14;;;;;;;35.28;29.88;;;;;;;7.32;100.00;99304.25;2088765;28;20226;-74
2021/09/10 04:11:16;;;;;;;34.50;28.87;;;;;;;7.32;100.00;99304.25;2088960;28;20226;-75
2021/09/10 04:12:19;;;;;;;31.38;27.98;;;;;;;7.27;100.00;99297.06;2088068;28;20223;-75
2021/09/10 04:13:20;;;;;;;33.65;27.80;;;;;;;7.29;100.00;99291.50;2088326;28;20230;-75
2021/09/10 04:14:22;;;;;;;31.40;28.02;;;;;;;7.30;100.00;99293.09;2088306;28;20309;-75
2021/09/10 04:15:24;;;;;;;31.48;28.20;;;;;;;7.28;100.00;99290.69;2079392;28;20227;-75
2021/09/10 04:16:27;;;;;;;36.33;27.90;;;;;;;7.31;100.00;99300.00;2088066;28;20344;-75
2021/09/10 04:17:29;;;;;;;35.28;27.98;;;;;;;7.29;100.00;99300.25;2088692;28;20223;-75
2021/09/10 04:18:29;;;;;;;31.98;28.33;;;;;;;7.30;100.00;99290.44;2088835;28;20573;-75
2021/09/10 04:19:31;;;;;;;37.20;29.00;;;;;;;7.30;100.00;99293.91;2087918;28;20230;-75
2021/09/10 04:20:34;;;;;;;31.75;27.25;;;;;;;7.29;100.00;99294.94;2088074;28;20215;-74
2021/09/10 04:21:34;;;;;;;31.98;27.00;;;;;;;7.28;100.00;99288.03;2087878;28;20234;-74
2021/09/10 04:22:36;;;;;;;30.83;26.07;;;;;;;7.29;100.00;99294.94;2088044;28;20230;-74
2021/09/10 04:23:37;;;;;;;31.60;25.55;;;;;;;7.28;100.00;99297.88;2088424;28;20696;-75
2021/09/10 04:24:41;;;;;;;30.70;26.37;;;;;;;7.25;100.00;99299.19;2087905;28;20629;-74
2021/09/10 04:25:42;;;;;;;31.50;27.02;;;;;;;7.23;100.00;99292.59;2080252;28;20606;-74
2021/09/10 04:26:44;;;;;;;32.63;27.53;;;;;;;7.22;100.00;99299.75;2088207;28;20333;-75
2021/09/10 04:27:44;;;;;;;34.42;27.65;;;;;;;7.24;100.00;99302.13;2087523;28;20238;-74
2021/09/10 04:28:47;;;;;;;32.77;29.00;;;;;;;7.23;100.00;99301.34;2088192;28;20230;-74
2021/09/10 04:29:49;;;;;;;32.67;27.92;;;;;;;7.23;100.00;99303.19;2088808;28;20293;-75
2021/09/10 04:30:50;;;;;;;36.00;28.02;;;;;;;7.21;100.00;99298.16;2088826;28;20238;-75
2021/09/10 04:31:51;;;;;;;33.58;28.00;;;;;;;7.23;100.00;99306.66;2088014;28;20227;-75
2021/09/10 04:32:52;;;;;;;30.27;26.97;;;;;;;7.20;100.00;99299.19;2087661;28;20226;-74
2021/09/10 04:33:53;;;;;;;31.20;27.58;;;;;;;7.22;100.00;99302.41;2087842;28;20238;-75
2021/09/10 04:34:55;;;;;;;33.80;28.20;;;;;;;7.23;100.00;99303.19;2088136;28;20237;-75
2021/09/10 04:35:55;;;;;;;30.90;27.55;;;;;;;7.24;100.00;99297.63;2087823;28;20230;-75
2021/09/10 04:36:59;;;;;;;30.90;27.67;;;;;;;7.27;100.00;99302.38;2088076;28;20227;-75
2021/09/10 04:37:59;;;;;;;32.38;27.58;;;;;;;7.27;100.00;99302.38;2088764;28;20684;-74
2021/09/10 04:39:01;;;;;;;30.97;27.50;;;;;;;7.27;100.00;99301.59;2088337;28;20622;-75
2021/09/10 04:40:03;;;;;;;33.28;28.15;;;;;;;7.27;100.00;99312.19;2088228;28;20222;-74
2021/09/10 04:41:04;;;;;;;30.70;27.40;;;;;;;7.26;100.00;99308.75;2088608;28;20223;-75
2021/09/10 04:42:05;;;;;;;30.10;26.98;;;;;;;7.27;100.00;99301.59;2088739;28;20235;-75
2021/09/10 04:43:10;;;;;;;31.30;28.00;;;;;;;7.25;100.00;99301.84;2088749;28;20226;-75
2021/09/10 04:44:10;;;;;;;30.65;27.40;;;;;;;7.28;100.00;99301.31;2088379;28;20613;-74
2021/09/10 04:45:13;;;;;;;30.30;27.17;;;;;;;7.27;100.00;99307.69;2087833;28;20235;-75